sensor_id;sensor_type;location;lat;lon;timestamp;pressure;altitude;pressure_sealevel;temperature;humidity
39455;BME280;25155;41.890;23.446;2023-10-08T00:00:44;92415.41;;;10.97;49.27
39455;BME280;25155;41.890;23.446;2023-10-08T00:03:16;92409.06;;;10.88;50.29
39455;BME280;25155;41.890;23.446;2023-10-08T00:05:43;92404.06;;;10.81;50.27
39455;BME280;25155;41.890;23.446;2023-10-08T00:08:12;92406.41;;;10.78;50.08
39455;BME280;25155;41.890;23.446;2023-10-08T00:10:42;92400.34;;;10.72;50.09
39455;BME280;25155;41.890;23.446;2023-10-08T00:13:11;92394.53;;;10.60;50.61
39455;BME280;25155;41.890;23.446;2023-10-08T00:15:42;92389.06;;;10.56;50.27
39455;BME280;25155;41.890;23.446;2023-10-08T00:18:16;92392.63;;;10.45;51.78
39455;BME280;25155;41.890;23.446;2023-10-08T00:20:45;92383.84;;;10.29;51.41
39455;BME280;25155;41.890;23.446;2023-10-08T00:23:20;92383.09;;;10.28;50.96
39455;BME280;25155;41.890;23.446;2023-10-08T00:25:51;92382.06;;;10.29;51.23
39455;BME280;25155;41.890;23.446;2023-10-08T00:28:20;92375.25;;;10.28;50.89
39455;BME280;25155;41.890;23.446;2023-10-08T00:30:47;92363.53;;;10.31;50.65
39455;BME280;25155;41.890;23.446;2023-10-08T00:33:15;92356.72;;;10.25;50.72
39455;BME280;25155;41.890;23.446;2023-10-08T00:35:42;92361.66;;;10.21;51.23
39455;BME280;25155;41.890;23.446;2023-10-08T00:38:10;92363.75;;;10.24;50.67
39455;BME280;25155;41.890;23.446;2023-10-08T00:40:42;92371.03;;;10.22;50.83
39455;BME280;25155;41.890;23.446;2023-10-08T00:45:55;92356.66;;;10.14;50.64
39455;BME280;25155;41.890;23.446;2023-10-08T00:48:25;92354.31;;;10.13;50.43
39455;BME280;25155;41.890;23.446;2023-10-08T00:50:55;92349.88;;;10.13;50.21
39455;BME280;25155;41.890;23.446;2023-10-08T00:53:36;92353.94;;;10.04;50.45
39455;BME280;25155;41.890;23.446;2023-10-08T00:56:06;92345.06;;;10.00;50.27
39455;BME280;25155;41.890;23.446;2023-10-08T00:58:40;92358.38;;;10.04;50.25
39455;BME280;25155;41.890;23.446;2023-10-08T01:01:14;92355.50;;;10.00;49.95
39455;BME280;25155;41.890;23.446;2023-10-08T01:03:42;92351.31;;;9.99;50.34
39455;BME280;25155;41.890;23.446;2023-10-08T01:06:11;92360.41;;;9.96;50.41
39455;BME280;25155;41.890;23.446;2023-10-08T01:08:44;92351.75;;;9.91;50.18
39455;BME280;25155;41.890;23.446;2023-10-08T01:11:17;92354.38;;;9.91;50.29
39455;BME280;25155;41.890;23.446;2023-10-08T01:13:45;92353.34;;;9.92;50.28
39455;BME280;25155;41.890;23.446;2023-10-08T01:16:14;92344.38;;;9.83;50.23
39455;BME280;25155;41.890;23.446;2023-10-08T01:18:43;92353.53;;;9.85;50.77
39455;BME280;25155;41.890;23.446;2023-10-08T01:21:17;92345.44;;;9.82;50.71
39455;BME280;25155;41.890;23.446;2023-10-08T01:24:02;92335.97;;;9.70;50.70
39455;BME280;25155;41.890;23.446;2023-10-08T01:26:32;92346.63;;;9.69;53.17
39455;BME280;25155;41.890;23.446;2023-10-08T01:28:59;92344.88;;;9.25;54.91
39455;BME280;25155;41.890;23.446;2023-10-08T01:31:29;92346.59;;;9.14;54.21
39455;BME280;25155;41.890;23.446;2023-10-08T01:33:58;92347.94;;;9.17;53.72
39455;BME280;25155;41.890;23.446;2023-10-08T01:36:26;92347.56;;;9.08;54.06
39455;BME280;25155;41.890;23.446;2023-10-08T01:38:55;92349.66;;;9.11;53.42
39455;BME280;25155;41.890;23.446;2023-10-08T01:41:25;92349.13;;;9.09;53.24
39455;BME280;25155;41.890;23.446;2023-10-08T01:43:56;92344.22;;;9.13;53.42
39455;BME280;25155;41.890;23.446;2023-10-08T01:46:24;92336.72;;;9.16;52.77
39455;BME280;25155;41.890;23.446;2023-10-08T01:48:53;92338.78;;;9.14;53.25
39455;BME280;25155;41.890;23.446;2023-10-08T01:51:29;92331.69;;;9.10;52.41
39455;BME280;25155;41.890;23.446;2023-10-08T01:54:05;92331.41;;;9.06;52.76
39455;BME280;25155;41.890;23.446;2023-10-08T01:56:39;92333.16;;;9.00;52.61
39455;BME280;25155;41.890;23.446;2023-10-08T01:59:08;92331.06;;;8.97;52.73
39455;BME280;25155;41.890;23.446;2023-10-08T02:01:37;92325.84;;;8.97;53.52
39455;BME280;25155;41.890;23.446;2023-10-08T02:04:05;92323.19;;;8.92;54.17
39455;BME280;25155;41.890;23.446;2023-10-08T02:06:35;92315.25;;;8.82;54.42
39455;BME280;25155;41.890;23.446;2023-10-08T02:09:03;92324.88;;;8.81;54.07
39455;BME280;25155;41.890;23.446;2023-10-08T02:11:43;92329.78;;;8.78;53.73
39455;BME280;25155;41.890;23.446;2023-10-08T02:14:11;92321.50;;;8.81;53.43
39455;BME280;25155;41.890;23.446;2023-10-08T02:16:42;92319.53;;;8.71;54.60
39455;BME280;25155;41.890;23.446;2023-10-08T02:19:10;92323.97;;;8.71;53.88
39455;BME280;25155;41.890;23.446;2023-10-08T02:21:38;92325.53;;;8.72;53.63
39455;BME280;25155;41.890;23.446;2023-10-08T02:24:08;92324.75;;;8.71;53.21
39455;BME280;25155;41.890;23.446;2023-10-08T02:26:37;92311.94;;;8.64;53.53
39455;BME280;25155;41.890;23.446;2023-10-08T02:29:07;92315.53;;;8.63;53.89
39455;BME280;25155;41.890;23.446;2023-10-08T02:31:37;92315.78;;;8.62;53.84
39455;BME280;25155;41.890;23.446;2023-10-08T02:34:05;92312.34;;;8.56;54.19
39455;BME280;25155;41.890;23.446;2023-10-08T02:36:34;92316.06;;;8.26;55.81
39455;BME280;25155;41.890;23.446;2023-10-08T02:39:03;92306.09;;;8.18;55.26
39455;BME280;25155;41.890;23.446;2023-10-08T02:41:39;92300.19;;;8.06;55.90
39455;BME280;25155;41.890;23.446;2023-10-08T02:44:10;92311.78;;;7.98;55.82
39455;BME280;25155;41.890;23.446;2023-10-08T02:46:40;92309.16;;;7.98;55.19
39455;BME280;25155;41.890;23.446;2023-10-08T02:49:08;92295.47;;;8.03;55.18
39455;BME280;25155;41.890;23.446;2023-10-08T02:51:38;92298.06;;;8.03;54.98
39455;BME280;25155;41.890;23.446;2023-10-08T02:54:07;92302.22;;;8.04;54.79
39455;BME280;25155;41.890;23.446;2023-10-08T02:56:44;92300.44;;;8.04;54.86
39455;BME280;25155;41.890;23.446;2023-10-08T02:59:13;92296.31;;;8.08;55.09
39455;BME280;25155;41.890;23.446;2023-10-08T03:01:41;92301.06;;;8.11;55.09
39455;BME280;25155;41.890;23.446;2023-10-08T03:04:08;92298.38;;;8.06;55.16
39455;BME280;25155;41.890;23.446;2023-10-08T03:06:44;92287.91;;;8.01;56.12
39455;BME280;25155;41.890;23.446;2023-10-08T03:09:17;92296.97;;;7.99;55.90
39455;BME280;25155;41.890;23.446;2023-10-08T03:11:50;92295.88;;;7.94;56.64
39455;BME280;25155;41.890;23.446;2023-10-08T03:14:21;92294.69;;;7.85;57.07
39455;BME280;25155;41.890;23.446;2023-10-08T03:16:53;92301.53;;;7.74;58.39
39455;BME280;25155;41.890;23.446;2023-10-08T03:19:33;92313.94;;;7.55;58.06
39455;BME280;25155;41.890;23.446;2023-10-08T03:22:01;92302.47;;;7.51;57.92
39455;BME280;25155;41.890;23.446;2023-10-08T03:24:30;92303.56;;;7.55;57.48
39455;BME280;25155;41.890;23.446;2023-10-08T03:27:04;92288.47;;;7.52;57.17
39455;BME280;25155;41.890;23.446;2023-10-08T03:29:40;92292.56;;;7.48;57.66
39455;BME280;25155;41.890;23.446;2023-10-08T03:32:08;92300.59;;;7.64;57.42
39455;BME280;25155;41.890;23.446;2023-10-08T03:34:47;92300.28;;;7.60;57.55
39455;BME280;25155;41.890;23.446;2023-10-08T03:37:18;92309.00;;;7.54;58.63
39455;BME280;25155;41.890;23.446;2023-10-08T03:39:55;92301.19;;;7.37;59.13
39455;BME280;25155;41.890;23.446;2023-10-08T03:42:33;92298.59;;;7.37;58.51
39455;BME280;25155;41.890;23.446;2023-10-08T03:45:13;92290.25;;;7.35;58.49
39455;BME280;25155;41.890;23.446;2023-10-08T03:47:48;92305.03;;;7.34;59.27
39455;BME280;25155;41.890;23.446;2023-10-08T03:50:30;92297.69;;;7.31;58.80
39455;BME280;25155;41.890;23.446;2023-10-08T03:53:07;92299.75;;;7.29;58.17
39455;BME280;25155;41.890;23.446;2023-10-08T03:55:38;92300.41;;;7.36;58.59
39455;BME280;25155;41.890;23.446;2023-10-08T03:58:07;92297.00;;;7.36;58.30
39455;BME280;25155;41.890;23.446;2023-10-08T04:00:51;92297.00;;;7.36;58.29
39455;BME280;25155;41.890;23.446;2023-10-08T04:03:32;92299.13;;;7.39;58.85
39455;BME280;25155;41.890;23.446;2023-10-08T04:06:18;92298.50;;;7.32;58.66
39455;BME280;25155;41.890;23.446;2023-10-08T04:08:49;92284.44;;;6.99;60.18
39455;BME280;25155;41.890;23.446;2023-10-08T04:11:30;92302.28;;;6.95;59.78
39455;BME280;25155;41.890;23.446;2023-10-08T04:14:01;92304.06;;;6.95;58.93
39455;BME280;25155;41.890;23.446;2023-10-08T04:16:32;92303.13;;;7.01;58.65
39455;BME280;25155;41.890;23.446;2023-10-08T04:19:02;92304.81;;;7.07;58.18
39455;BME280;25155;41.890;23.446;2023-10-08T04:21:30;92293.13;;;6.93;60.59
39455;BME280;25155;41.890;23.446;2023-10-08T04:23:59;92297.34;;;6.70;60.93
39455;BME280;25155;41.890;23.446;2023-10-08T04:26:30;92298.94;;;6.71;60.66
39455;BME280;25155;41.890;23.446;2023-10-08T04:29:00;92302.19;;;6.78;60.07
39455;BME280;25155;41.890;23.446;2023-10-08T04:31:31;92293.94;;;6.81;59.81
39455;BME280;25155;41.890;23.446;2023-10-08T04:34:03;92307.81;;;6.87;59.40
39455;BME280;25155;41.890;23.446;2023-10-08T04:36:36;92303.50;;;6.93;59.32
39455;BME280;25155;41.890;23.446;2023-10-08T04:39:04;92293.03;;;6.88;59.00
39455;BME280;25155;41.890;23.446;2023-10-08T04:41:39;92311.28;;;6.93;59.13
39455;BME280;25155;41.890;23.446;2023-10-08T04:44:08;92310.81;;;6.96;58.61
39455;BME280;25155;41.890;23.446;2023-10-08T04:46:43;92309.81;;;6.97;58.73
39455;BME280;25155;41.890;23.446;2023-10-08T04:49:18;92309.34;;;7.00;58.89
39455;BME280;25155;41.890;23.446;2023-10-08T04:51:54;92297.31;;;6.94;58.92
39455;BME280;25155;41.890;23.446;2023-10-08T04:54:24;92311.47;;;7.03;58.73
39455;BME280;25155;41.890;23.446;2023-10-08T04:56:56;92320.69;;;6.70;59.88
39455;BME280;25155;41.890;23.446;2023-10-08T04:59:24;92314.78;;;6.87;59.04
39455;BME280;25155;41.890;23.446;2023-10-08T05:02:01;92317.03;;;6.95;59.11
39455;BME280;25155;41.890;23.446;2023-10-08T05:04:46;92320.28;;;7.02;59.08
39455;BME280;25155;41.890;23.446;2023-10-08T05:07:23;92313.69;;;7.11;58.84
39455;BME280;25155;41.890;23.446;2023-10-08T05:10:04;92316.66;;;7.03;60.86
39455;BME280;25155;41.890;23.446;2023-10-08T05:12:58;92318.50;;;6.91;61.70
39455;BME280;25155;41.890;23.446;2023-10-08T05:15:41;92316.06;;;6.84;61.77
39455;BME280;25155;41.890;23.446;2023-10-08T05:18:17;92328.34;;;6.77;61.88
39455;BME280;25155;41.890;23.446;2023-10-08T05:20:49;92324.84;;;6.83;61.70
39455;BME280;25155;41.890;23.446;2023-10-08T05:23:42;92310.19;;;6.89;61.25
39455;BME280;25155;41.890;23.446;2023-10-08T05:26:38;92308.78;;;6.98;61.22
39455;BME280;25155;41.890;23.446;2023-10-08T05:29:11;92301.31;;;7.13;60.58
39455;BME280;25155;41.890;23.446;2023-10-08T05:32:17;92304.31;;;7.22;60.68
39455;BME280;25155;41.890;23.446;2023-10-08T05:35:07;92297.69;;;7.31;60.43
39455;BME280;25155;41.890;23.446;2023-10-08T05:37:51;92307.25;;;7.43;60.38
39455;BME280;25155;41.890;23.446;2023-10-08T05:40:38;92274.78;;;7.40;60.45
39455;BME280;25155;41.890;23.446;2023-10-08T05:43:30;92299.06;;;7.34;60.62
39455;BME280;25155;41.890;23.446;2023-10-08T05:46:21;92315.38;;;7.63;60.23
39455;BME280;25155;41.890;23.446;2023-10-08T05:49:15;92307.28;;;7.76;60.34
39455;BME280;25155;41.890;23.446;2023-10-08T05:52:09;92305.31;;;7.84;60.16
39455;BME280;25155;41.890;23.446;2023-10-08T05:54:53;92317.44;;;7.95;59.79
39455;BME280;25155;41.890;23.446;2023-10-08T05:57:40;92316.34;;;8.08;59.40
39455;BME280;25155;41.890;23.446;2023-10-08T06:00:13;92284.84;;;8.04;59.52
39455;BME280;25155;41.890;23.446;2023-10-08T06:02:58;92304.50;;;8.34;59.69
39455;BME280;25155;41.890;23.446;2023-10-08T06:05:38;92310.94;;;8.48;60.05
39455;BME280;25155;41.890;23.446;2023-10-08T06:08:14;92304.31;;;8.58;59.93
39455;BME280;25155;41.890;23.446;2023-10-08T06:10:47;92299.53;;;8.72;59.43
39455;BME280;25155;41.890;23.446;2023-10-08T06:13:22;92308.19;;;8.77;59.16
39455;BME280;25155;41.890;23.446;2023-10-08T06:16:11;92308.00;;;8.84;59.23
39455;BME280;25155;41.890;23.446;2023-10-08T06:18:56;92311.25;;;8.96;59.33
39455;BME280;25155;41.890;23.446;2023-10-08T06:21:22;92301.44;;;9.03;59.27
39455;BME280;25155;41.890;23.446;2023-10-08T06:23:54;92300.47;;;9.10;59.31
39455;BME280;25155;41.890;23.446;2023-10-08T06:26:22;92297.47;;;9.23;59.25
39455;BME280;25155;41.890;23.446;2023-10-08T06:28:51;92292.69;;;9.37;58.88
39455;BME280;25155;41.890;23.446;2023-10-08T06:31:23;92290.94;;;9.48;59.19
39455;BME280;25155;41.890;23.446;2023-10-08T06:33:52;92300.97;;;9.61;59.27
39455;BME280;25155;41.890;23.446;2023-10-08T06:36:21;92302.06;;;9.65;59.00
39455;BME280;25155;41.890;23.446;2023-10-08T06:38:50;92305.78;;;9.74;58.62
39455;BME280;25155;41.890;23.446;2023-10-08T06:41:18;92300.94;;;9.88;58.93
39455;BME280;25155;41.890;23.446;2023-10-08T06:43:49;92255.84;;;9.88;58.62
39455;BME280;25155;41.890;23.446;2023-10-08T06:46:28;92281.13;;;10.25;58.85
39455;BME280;25155;41.890;23.446;2023-10-08T06:48:58;92283.88;;;10.45;58.64
39455;BME280;25155;41.890;23.446;2023-10-08T06:51:25;92279.78;;;10.60;58.15
39455;BME280;25155;41.890;23.446;2023-10-08T06:53:56;92287.66;;;10.75;57.96
39455;BME280;25155;41.890;23.446;2023-10-08T06:56:30;92290.88;;;10.87;57.55
39455;BME280;25155;41.890;23.446;2023-10-08T06:58:59;92298.22;;;11.06;57.54
39455;BME280;25155;41.890;23.446;2023-10-08T07:01:27;92298.53;;;11.25;57.48
39455;BME280;25155;41.890;23.446;2023-10-08T07:04:04;92291.78;;;11.44;57.15
39455;BME280;25155;41.890;23.446;2023-10-08T07:06:32;92279.81;;;11.59;57.16
39455;BME280;25155;41.890;23.446;2023-10-08T07:09:00;92279.28;;;11.82;57.18
39455;BME280;25155;41.890;23.446;2023-10-08T07:11:33;92278.81;;;11.96;57.08
39455;BME280;25155;41.890;23.446;2023-10-08T07:14:01;92274.63;;;12.10;56.48
39455;BME280;25155;41.890;23.446;2023-10-08T07:16:29;92292.63;;;12.37;56.33
39455;BME280;25155;41.890;23.446;2023-10-08T07:18:58;92276.34;;;12.56;55.96
39455;BME280;25155;41.890;23.446;2023-10-08T07:21:44;92270.28;;;12.71;54.60
39455;BME280;25155;41.890;23.446;2023-10-08T07:24:11;92279.41;;;12.84;53.65
39455;BME280;25155;41.890;23.446;2023-10-08T07:26:44;92280.66;;;12.97;53.61
39455;BME280;25155;41.890;23.446;2023-10-08T07:29:14;92274.09;;;13.09;52.97
39455;BME280;25155;41.890;23.446;2023-10-08T07:31:43;92266.66;;;13.22;52.34
39455;BME280;25155;41.890;23.446;2023-10-08T07:34:15;92265.56;;;13.38;52.20
39455;BME280;25155;41.890;23.446;2023-10-08T07:36:45;92256.59;;;13.50;51.70
39455;BME280;25155;41.890;23.446;2023-10-08T07:39:14;92255.97;;;13.63;51.78
39455;BME280;25155;41.890;23.446;2023-10-08T07:41:54;92249.56;;;13.79;50.79
39455;BME280;25155;41.890;23.446;2023-10-08T07:44:23;92251.28;;;13.94;50.35
39455;BME280;25155;41.890;23.446;2023-10-08T07:46:50;92247.03;;;14.03;49.83
39455;BME280;25155;41.890;23.446;2023-10-08T07:49:21;92250.31;;;14.14;48.89
39455;BME280;25155;41.890;23.446;2023-10-08T07:51:50;92250.16;;;14.30;49.11
39455;BME280;25155;41.890;23.446;2023-10-08T07:54:18;92252.72;;;14.40;47.55
39455;BME280;25155;41.890;23.446;2023-10-08T07:56:48;92245.00;;;14.49;47.33
39455;BME280;25155;41.890;23.446;2023-10-08T07:59:18;92247.16;;;14.71;46.07
39455;BME280;25155;41.890;23.446;2023-10-08T08:01:47;92242.25;;;14.88;46.31
39455;BME280;25155;41.890;23.446;2023-10-08T08:04:14;92235.19;;;15.08;46.15
39455;BME280;25155;41.890;23.446;2023-10-08T08:06:48;92232.28;;;15.28;46.97
39455;BME280;25155;41.890;23.446;2023-10-08T08:09:17;92227.81;;;15.48;46.75
39455;BME280;25155;41.890;23.446;2023-10-08T08:11:49;92229.63;;;15.66;46.83
39455;BME280;25155;41.890;23.446;2023-10-08T08:14:17;92223.31;;;15.86;47.23
39455;BME280;25155;41.890;23.446;2023-10-08T08:16:51;92231.94;;;16.06;46.89
39455;BME280;25155;41.890;23.446;2023-10-08T08:19:19;92218.13;;;16.28;46.17
39455;BME280;25155;41.890;23.446;2023-10-08T08:21:50;92221.00;;;16.46;45.80
39455;BME280;25155;41.890;23.446;2023-10-08T08:24:19;92216.72;;;16.64;45.38
39455;BME280;25155;41.890;23.446;2023-10-08T08:26:54;92206.06;;;16.83;45.30
39455;BME280;25155;41.890;23.446;2023-10-08T08:29:35;92203.75;;;16.95;42.85
39455;BME280;25155;41.890;23.446;2023-10-08T08:32:09;92211.81;;;17.12;42.17
39455;BME280;25155;41.890;23.446;2023-10-08T08:34:41;92211.38;;;16.96;42.79
39455;BME280;25155;41.890;23.446;2023-10-08T08:37:11;92213.75;;;17.34;43.39
39455;BME280;25155;41.890;23.446;2023-10-08T08:39:38;92197.94;;;17.57;43.35
39455;BME280;25155;41.890;23.446;2023-10-08T08:42:07;92182.88;;;17.80;43.15
39455;BME280;25155;41.890;23.446;2023-10-08T08:44:38;92198.13;;;18.06;43.77
39455;BME280;25155;41.890;23.446;2023-10-08T08:47:11;92194.66;;;18.28;41.19
39455;BME280;25155;41.890;23.446;2023-10-08T08:49:43;92191.00;;;18.38;40.39
39455;BME280;25155;41.890;23.446;2023-10-08T08:52:11;92191.97;;;18.51;39.59
39455;BME280;25155;41.890;23.446;2023-10-08T08:54:39;92180.53;;;18.64;40.36
39455;BME280;25155;41.890;23.446;2023-10-08T08:57:09;92178.72;;;18.82;39.30
39455;BME280;25155;41.890;23.446;2023-10-08T08:59:46;92172.56;;;18.95;39.43
39455;BME280;25155;41.890;23.446;2023-10-08T09:02:18;92167.78;;;19.15;39.91
39455;BME280;25155;41.890;23.446;2023-10-08T09:04:48;92163.72;;;19.26;37.26
39455;BME280;25155;41.890;23.446;2023-10-08T09:07:19;92156.25;;;19.46;37.14
39455;BME280;25155;41.890;23.446;2023-10-08T09:09:47;92153.16;;;19.61;37.39
39455;BME280;25155;41.890;23.446;2023-10-08T09:12:16;92163.13;;;19.82;37.78
39455;BME280;25155;41.890;23.446;2023-10-08T09:14:46;92144.56;;;19.99;38.50
39455;BME280;25155;41.890;23.446;2023-10-08T09:17:13;92143.56;;;20.21;38.04
39455;BME280;25155;41.890;23.446;2023-10-08T09:19:40;92151.59;;;20.42;37.89
39455;BME280;25155;41.890;23.446;2023-10-08T09:22:09;92144.31;;;20.60;37.32
39455;BME280;25155;41.890;23.446;2023-10-08T09:24:39;92145.06;;;20.78;37.67
39455;BME280;25155;41.890;23.446;2023-10-08T09:27:07;92135.94;;;20.97;36.68
39455;BME280;25155;41.890;23.446;2023-10-08T09:29:39;92136.88;;;21.13;37.18
39455;BME280;25155;41.890;23.446;2023-10-08T09:32:11;92126.59;;;21.33;35.59
39455;BME280;25155;41.890;23.446;2023-10-08T09:34:39;92125.56;;;21.46;32.33
39455;BME280;25155;41.890;23.446;2023-10-08T09:37:06;92126.94;;;21.52;32.84
39455;BME280;25155;41.890;23.446;2023-10-08T09:39:34;92122.56;;;21.56;33.21
39455;BME280;25155;41.890;23.446;2023-10-08T09:42:02;92118.06;;;21.69;34.17
39455;BME280;25155;41.890;23.446;2023-10-08T09:44:32;92112.59;;;21.87;36.09
39455;BME280;25155;41.890;23.446;2023-10-08T09:47:03;92106.41;;;22.07;35.68
39455;BME280;25155;41.890;23.446;2023-10-08T09:49:39;92101.06;;;22.28;35.77
39455;BME280;25155;41.890;23.446;2023-10-08T09:52:08;92098.00;;;22.51;35.88
39455;BME280;25155;41.890;23.446;2023-10-08T09:54:39;92099.31;;;22.70;32.73
39455;BME280;25155;41.890;23.446;2023-10-08T09:57:10;92088.78;;;22.73;31.99
39455;BME280;25155;41.890;23.446;2023-10-08T09:59:39;92083.22;;;22.78;30.35
39455;BME280;25155;41.890;23.446;2023-10-08T10:02:09;92080.13;;;22.76;30.44
39455;BME280;25155;41.890;23.446;2023-10-08T10:04:41;92085.44;;;22.76;29.76
39455;BME280;25155;41.890;23.446;2023-10-08T10:07:10;92080.66;;;22.82;30.13
39455;BME280;25155;41.890;23.446;2023-10-08T10:09:42;92077.91;;;22.78;29.17
39455;BME280;25155;41.890;23.446;2023-10-08T10:12:11;92076.00;;;22.79;29.57
39455;BME280;25155;41.890;23.446;2023-10-08T10:14:44;92069.25;;;22.81;30.32
39455;BME280;25155;41.890;23.446;2023-10-08T10:17:17;92069.47;;;22.89;29.99
39455;BME280;25155;41.890;23.446;2023-10-08T10:19:53;92059.72;;;22.93;29.29
39455;BME280;25155;41.890;23.446;2023-10-08T10:22:28;92058.25;;;22.95;28.92
39455;BME280;25155;41.890;23.446;2023-10-08T10:24:56;92060.59;;;23.09;29.48
39455;BME280;25155;41.890;23.446;2023-10-08T10:27:25;92052.63;;;23.09;29.29
39455;BME280;25155;41.890;23.446;2023-10-08T10:30:01;92056.94;;;23.14;28.96
39455;BME280;25155;41.890;23.446;2023-10-08T10:32:34;92056.88;;;23.26;29.21
39455;BME280;25155;41.890;23.446;2023-10-08T10:35:03;92049.53;;;23.35;28.85
39455;BME280;25155;41.890;23.446;2023-10-08T10:37:33;92048.75;;;23.35;28.38
39455;BME280;25155;41.890;23.446;2023-10-08T10:40:08;92048.75;;;23.35;28.67
39455;BME280;25155;41.890;23.446;2023-10-08T10:42:38;92030.03;;;23.31;28.81
39455;BME280;25155;41.890;23.446;2023-10-08T10:45:13;92041.91;;;23.34;28.61
39455;BME280;25155;41.890;23.446;2023-10-08T10:48:01;92030.75;;;23.44;28.24
39455;BME280;25155;41.890;23.446;2023-10-08T10:50:39;92019.53;;;23.51;29.16
39455;BME280;25155;41.890;23.446;2023-10-08T10:53:14;92026.16;;;23.57;28.65
39455;BME280;25155;41.890;23.446;2023-10-08T10:55:42;92031.91;;;23.59;28.93
39455;BME280;25155;41.890;23.446;2023-10-08T10:58:25;92025.56;;;23.64;29.16
39455;BME280;25155;41.890;23.446;2023-10-08T11:00:54;92028.81;;;23.73;28.25
39455;BME280;25155;41.890;23.446;2023-10-08T11:03:24;92029.72;;;23.77;28.77
39455;BME280;25155;41.890;23.446;2023-10-08T11:05:57;92024.56;;;23.84;28.36
39455;BME280;25155;41.890;23.446;2023-10-08T11:08:31;92011.34;;;23.88;27.80
39455;BME280;25155;41.890;23.446;2023-10-08T11:11:01;92007.41;;;23.98;27.91
39455;BME280;25155;41.890;23.446;2023-10-08T11:13:33;92023.72;;;23.96;27.46
39455;BME280;25155;41.890;23.446;2023-10-08T11:16:05;92005.94;;;24.00;27.25
39455;BME280;25155;41.890;23.446;2023-10-08T11:18:35;92020.63;;;23.94;27.08
39455;BME280;25155;41.890;23.446;2023-10-08T11:21:10;92026.03;;;23.98;27.29
39455;BME280;25155;41.890;23.446;2023-10-08T11:23:42;92021.50;;;23.98;27.13
39455;BME280;25155;41.890;23.446;2023-10-08T11:26:12;92006.34;;;23.70;27.02
39455;BME280;25155;41.890;23.446;2023-10-08T11:28:42;92020.69;;;23.82;27.17
39455;BME280;25155;41.890;23.446;2023-10-08T11:31:13;92023.28;;;23.94;26.86
39455;BME280;25155;41.890;23.446;2023-10-08T11:33:46;92035.59;;;23.99;26.94
39455;BME280;25155;41.890;23.446;2023-10-08T11:36:22;92036.53;;;24.06;27.12
39455;BME280;25155;41.890;23.446;2023-10-08T11:38:53;92020.31;;;24.11;26.34
39455;BME280;25155;41.890;23.446;2023-10-08T11:41:27;92027.16;;;24.12;26.72
39455;BME280;25155;41.890;23.446;2023-10-08T11:43:55;92020.63;;;24.26;26.77
39455;BME280;25155;41.890;23.446;2023-10-08T11:46:24;92005.50;;;24.30;26.62
39455;BME280;25155;41.890;23.446;2023-10-08T11:48:58;92023.22;;;24.22;27.04
39455;BME280;25155;41.890;23.446;2023-10-08T11:51:32;92027.94;;;24.29;27.01
39455;BME280;25155;41.890;23.446;2023-10-08T11:54:00;92015.56;;;24.37;27.31
39455;BME280;25155;41.890;23.446;2023-10-08T11:56:28;92013.19;;;24.51;27.04
39455;BME280;25155;41.890;23.446;2023-10-08T11:58:55;92001.50;;;24.56;26.99
39455;BME280;25155;41.890;23.446;2023-10-08T12:01:23;92000.47;;;24.60;27.13
39455;BME280;25155;41.890;23.446;2023-10-08T12:03:52;92002.38;;;24.60;26.94
39455;BME280;25155;41.890;23.446;2023-10-08T12:06:25;91993.84;;;24.54;27.01
39455;BME280;25155;41.890;23.446;2023-10-08T12:08:57;91993.25;;;24.61;27.51
39455;BME280;25155;41.890;23.446;2023-10-08T12:11:25;91992.78;;;24.75;27.71
39455;BME280;25155;41.890;23.446;2023-10-08T12:13:57;91982.69;;;24.84;26.94
39455;BME280;25155;41.890;23.446;2023-10-08T12:16:25;91983.75;;;24.79;26.85
39455;BME280;25155;41.890;23.446;2023-10-08T12:18:56;91978.91;;;24.85;26.98
39455;BME280;25155;41.890;23.446;2023-10-08T12:21:25;91982.50;;;24.93;27.17
39455;BME280;25155;41.890;23.446;2023-10-08T12:23:56;91979.97;;;25.00;26.92
39455;BME280;25155;41.890;23.446;2023-10-08T12:26:24;91990.34;;;25.05;27.06
39455;BME280;25155;41.890;23.446;2023-10-08T12:28:52;91981.06;;;24.99;26.67
39455;BME280;25155;41.890;23.446;2023-10-08T12:31:20;91981.50;;;24.81;26.45
39455;BME280;25155;41.890;23.446;2023-10-08T12:33:48;91970.81;;;24.81;27.02
39455;BME280;25155;41.890;23.446;2023-10-08T12:36:18;91972.78;;;24.49;27.31
39455;BME280;25155;41.890;23.446;2023-10-08T12:38:49;91977.56;;;24.75;27.13
39455;BME280;25155;41.890;23.446;2023-10-08T12:41:24;91973.56;;;24.85;26.99
39455;BME280;25155;41.890;23.446;2023-10-08T12:43:53;91983.13;;;24.86;27.08
39455;BME280;25155;41.890;23.446;2023-10-08T12:46:21;91989.28;;;24.90;27.16
39455;BME280;25155;41.890;23.446;2023-10-08T12:48:52;91980.09;;;24.88;26.63
39455;BME280;25155;41.890;23.446;2023-10-08T12:51:20;91976.00;;;24.94;27.49
39455;BME280;25155;41.890;23.446;2023-10-08T12:53:50;91977.78;;;24.86;27.03
39455;BME280;25155;41.890;23.446;2023-10-08T12:56:26;91978.41;;;24.79;27.79
39455;BME280;25155;41.890;23.446;2023-10-08T12:59:02;91985.28;;;24.80;27.25
39455;BME280;25155;41.890;23.446;2023-10-08T13:01:32;91991.59;;;24.92;27.64
39455;BME280;25155;41.890;23.446;2023-10-08T13:04:01;91976.59;;;25.03;27.87
39455;BME280;25155;41.890;23.446;2023-10-08T13:06:33;91975.44;;;25.04;27.87
39455;BME280;25155;41.890;23.446;2023-10-08T13:09:04;91977.56;;;24.95;27.70
39455;BME280;25155;41.890;23.446;2023-10-08T13:11:39;91986.28;;;24.92;27.53
39455;BME280;25155;41.890;23.446;2023-10-08T13:14:08;91973.56;;;25.04;27.78
39455;BME280;25155;41.890;23.446;2023-10-08T13:16:37;91982.63;;;25.00;27.58
39455;BME280;25155;41.890;23.446;2023-10-08T13:19:04;91988.97;;;24.76;27.58
39455;BME280;25155;41.890;23.446;2023-10-08T13:21:34;91983.38;;;24.61;27.78
39455;BME280;25155;41.890;23.446;2023-10-08T13:24:02;91990.16;;;24.59;27.94